createdAt,value
2022-11-23T00:01:24.171Z,112.15
2022-11-23T00:03:56.712Z,120.15
2022-11-23T00:06:25.346Z,121.60
2022-11-23T00:08:53.567Z,117.15
2022-11-23T00:11:22.282Z,108.22
2022-11-23T00:13:50.875Z,111.13
2022-11-23T00:16:23.579Z,121.35
2022-11-23T00:18:53.892Z,119.85
2022-11-23T00:21:22.217Z,124.53
2022-11-23T00:23:49.705Z,118.85
2022-11-23T00:26:18.110Z,147.93
2022-11-23T00:28:45.923Z,119.78
2022-11-23T00:31:15.272Z,120.85
2022-11-23T00:36:13.444Z,122.00
2022-11-23T00:38:41.038Z,120.13
2022-11-23T00:41:10.931Z,107.85
2022-11-23T00:43:38.568Z,131.35
2022-11-23T00:46:06.775Z,118.15
2022-11-23T00:48:34.238Z,112.90
2022-11-23T00:51:03.095Z,123.97
2022-11-23T00:53:30.403Z,135.50
2022-11-23T00:55:58.154Z,134.18
2022-11-23T00:58:25.816Z,139.95
2022-11-23T01:01:01.503Z,125.97
2022-11-23T01:03:29.878Z,131.13
2022-11-23T01:06:01.985Z,135.10
2022-11-23T01:08:29.217Z,131.05
2022-11-23T01:11:00.687Z,131.63
2022-11-23T01:13:28.152Z,118.20
2022-11-23T01:15:55.331Z,123.22
2022-11-23T01:18:22.980Z,127.88
2022-11-23T01:20:50.146Z,131.00
2022-11-23T01:23:17.502Z,128.10
2022-11-23T01:25:44.705Z,139.90
2022-11-23T01:28:12.101Z,123.60
2022-11-23T01:30:39.318Z,131.25
2022-11-23T01:33:06.519Z,120.60
2022-11-23T01:35:33.720Z,124.47
2022-11-23T01:38:00.900Z,129.85
2022-11-23T01:40:28.124Z,125.05
2022-11-23T01:42:57.737Z,121.75
2022-11-23T01:45:38.311Z,117.15
2022-11-23T01:48:09.919Z,118.45
2022-11-23T01:50:37.812Z,125.85
2022-11-23T01:53:05.366Z,108.68
2022-11-23T01:55:32.620Z,119.85
2022-11-23T01:58:00.288Z,128.48
2022-11-23T02:00:28.499Z,114.43
2022-11-23T02:02:58.688Z,113.07
2022-11-23T02:05:31.069Z,112.20
2022-11-23T02:07:59.441Z,113.00
2022-11-23T02:10:27.004Z,109.38
2022-11-23T02:12:54.551Z,110.55
2022-11-23T02:15:21.752Z,119.28
2022-11-23T02:17:49.085Z,117.28
2022-11-23T02:20:18.479Z,107.72
2022-11-23T02:25:46.359Z,99.20
2022-11-23T02:28:19.134Z,107.28
2022-11-23T02:30:48.853Z,106.25
2022-11-23T02:33:16.042Z,119.57
2022-11-23T02:36:00.904Z,106.43
2022-11-23T02:38:31.978Z,109.82
2022-11-23T02:40:59.251Z,108.40
2022-11-23T02:43:26.502Z,109.47
2022-11-23T02:45:54.680Z,98.35
2022-11-23T02:48:21.887Z,101.32
2022-11-23T02:50:49.043Z,104.97
2022-11-23T02:53:16.220Z,103.72
2022-11-23T02:55:43.394Z,111.88
2022-11-23T02:58:10.949Z,104.85
2022-11-23T03:00:38.236Z,106.18
2022-11-23T03:03:05.531Z,108.80
2022-11-23T03:05:32.926Z,114.38
2022-11-23T03:08:00.136Z,112.75
2022-11-23T03:10:27.586Z,103.70
2022-11-23T03:12:56.385Z,107.90
2022-11-23T03:15:24.290Z,105.72
2022-11-23T03:17:51.804Z,114.07
2022-11-23T03:20:19.043Z,105.50
2022-11-23T03:22:46.401Z,92.53
2022-11-23T03:25:13.597Z,99.60
2022-11-23T03:27:40.802Z,108.70
2022-11-23T03:30:09.430Z,97.90
2022-11-23T03:32:36.976Z,100.82
2022-11-23T03:35:05.402Z,93.88
2022-11-23T03:37:32.583Z,99.05
2022-11-23T03:39:59.740Z,94.20
2022-11-23T03:42:26.923Z,103.32
2022-11-23T03:44:54.157Z,101.10
2022-11-23T03:47:21.400Z,103.85
2022-11-23T03:49:48.710Z,100.93
2022-11-23T03:52:15.896Z,100.75
2022-11-23T03:54:43.088Z,93.75
2022-11-23T03:57:10.281Z,90.32
2022-11-23T03:59:37.440Z,96.03
2022-11-23T04:02:04.604Z,97.70
2022-11-23T04:04:31.805Z,99.95
2022-11-23T04:06:58.986Z,98.80
2022-11-23T04:09:26.188Z,85.63
2022-11-23T04:11:53.364Z,89.63
2022-11-23T04:14:20.635Z,81.55
2022-11-23T04:16:47.804Z,89.25
2022-11-23T04:19:15.014Z,87.82
2022-11-23T04:21:42.262Z,89.85
2022-11-23T04:24:09.535Z,78.95
2022-11-23T04:26:36.748Z,87.30
2022-11-23T04:29:04.023Z,83.60
2022-11-23T04:31:31.176Z,91.25
2022-11-23T04:33:58.381Z,90.43
2022-11-23T04:36:25.709Z,84.05
2022-11-23T04:38:52.874Z,100.10
2022-11-23T04:41:20.171Z,90.65
2022-11-23T04:43:51.770Z,84.07
2022-11-23T04:46:19.392Z,90.53
2022-11-23T04:48:46.769Z,86.43
2022-11-23T04:51:14.335Z,85.93
2022-11-23T04:53:41.530Z,88.60
2022-11-23T04:56:08.932Z,91.97
2022-11-23T04:58:39.095Z,86.05
2022-11-23T05:01:06.916Z,86.70
2022-11-23T05:03:37.017Z,84.45
2022-11-23T05:06:05.028Z,81.63
2022-11-23T05:08:32.217Z,85.05
2022-11-23T05:10:59.646Z,77.43
2022-11-23T05:13:26.845Z,79.90
2022-11-23T05:15:54.037Z,87.65
2022-11-23T05:18:21.278Z,83.28
2022-11-23T05:20:48.439Z,86.13
2022-11-23T05:23:15.675Z,85.50
2022-11-23T05:25:42.840Z,96.00
2022-11-23T05:28:38.976Z,92.13
2022-11-23T05:31:06.131Z,85.85
2022-11-23T05:33:33.382Z,90.15
2022-11-23T05:36:00.602Z,90.03
2022-11-23T05:38:27.829Z,86.78
2022-11-23T05:40:55.004Z,90.15
2022-11-23T05:43:22.191Z,80.38
2022-11-23T05:45:49.815Z,87.78
2022-11-23T05:48:17.087Z,77.60
2022-11-23T05:50:44.348Z,81.22
2022-11-23T05:53:11.568Z,91.10
2022-11-23T05:55:38.728Z,79.88
2022-11-23T05:58:05.913Z,91.35
2022-11-23T06:00:33.076Z,85.35
2022-11-23T06:03:01.590Z,96.93
2022-11-23T06:05:29.560Z,94.27
2022-11-23T06:07:56.780Z,98.75
2022-11-23T06:10:24.000Z,93.25
2022-11-23T06:12:52.730Z,97.20
2022-11-23T06:15:20.206Z,88.25
2022-11-23T06:17:47.394Z,93.70
2022-11-23T06:20:14.712Z,85.90
2022-11-23T06:22:47.239Z,87.53
2022-11-23T06:25:14.886Z,85.90
2022-11-23T06:27:42.109Z,92.70
2022-11-23T06:30:09.764Z,81.50
2022-11-23T06:32:36.962Z,77.35
2022-11-23T06:35:04.299Z,79.80
2022-11-23T06:37:31.736Z,88.25
2022-11-23T06:39:58.924Z,87.57
2022-11-23T06:42:41.288Z,86.35
2022-11-23T06:45:09.158Z,88.47
2022-11-23T06:47:36.434Z,85.63
2022-11-23T06:50:03.975Z,82.13
2022-11-23T06:52:31.275Z,82.47
2022-11-23T06:54:58.515Z,87.35
2022-11-23T06:57:25.730Z,85.15
2022-11-23T06:59:52.960Z,87.93
2022-11-23T07:02:21.079Z,93.35
2022-11-23T07:04:50.861Z,85.68
2022-11-23T07:07:18.118Z,83.93
2022-11-23T07:09:45.328Z,100.85
2022-11-23T07:12:12.547Z,95.85
2022-11-23T07:14:39.769Z,86.55
2022-11-23T07:17:06.962Z,95.43
2022-11-23T07:19:34.322Z,96.65
2022-11-23T07:22:01.709Z,98.82
2022-11-23T07:24:32.862Z,100.95
2022-11-23T07:27:03.699Z,90.38
2022-11-23T07:29:31.519Z,81.70
2022-11-23T07:31:58.976Z,97.50
2022-11-23T07:34:27.697Z,98.47
2022-11-23T07:37:00.571Z,113.18
2022-11-23T07:39:55.114Z,100.32
2022-11-23T07:42:32.363Z,96.88
2022-11-23T07:45:02.137Z,96.60
2022-11-23T07:47:29.548Z,91.93
2022-11-23T07:49:56.809Z,101.15
2022-11-23T07:52:24.591Z,92.60
2022-11-23T07:54:51.877Z,82.90
2022-11-23T07:57:19.080Z,90.80
2022-11-23T07:59:46.326Z,98.32
2022-11-23T08:02:18.247Z,88.40
2022-11-23T08:04:45.564Z,88.47
2022-11-23T08:07:12.818Z,83.75
2022-11-23T08:09:40.079Z,90.43
2022-11-23T08:12:07.509Z,84.40
2022-11-23T08:14:35.313Z,88.82
2022-11-23T08:17:03.343Z,93.38
2022-11-23T08:19:30.556Z,84.10
2022-11-23T08:21:57.770Z,89.97
2022-11-23T08:24:25.011Z,76.18
2022-11-23T08:26:52.232Z,83.68
2022-11-23T08:29:19.530Z,79.03
2022-11-23T08:31:46.788Z,79.55
2022-11-23T08:34:16.530Z,74.00
2022-11-23T08:36:43.728Z,83.07
2022-11-23T08:39:11.211Z,73.53
2022-11-23T08:41:38.756Z,66.10
2022-11-23T08:44:08.365Z,69.60
2022-11-23T08:46:35.819Z,63.03
2022-11-23T08:49:03.680Z,64.40
2022-11-23T08:51:30.923Z,69.15
2022-11-23T08:53:58.227Z,60.97
2022-11-23T08:56:25.439Z,64.25
2022-11-23T08:58:52.724Z,62.03
2022-11-23T09:01:20.186Z,60.17
2022-11-23T09:03:47.489Z,59.95
2022-11-23T09:06:14.823Z,56.42
2022-11-23T09:08:42.018Z,54.30
2022-11-23T09:11:12.535Z,53.30
2022-11-23T09:13:39.912Z,55.10
2022-11-23T09:16:07.909Z,55.75
2022-11-23T09:18:36.585Z,57.90
2022-11-23T09:21:04.994Z,45.83
2022-11-23T09:23:32.196Z,44.65
2022-11-23T09:26:00.530Z,52.00
2022-11-23T09:28:28.460Z,39.45
2022-11-23T09:30:56.898Z,44.67
2022-11-23T09:33:26.320Z,41.35
2022-11-23T09:38:51.884Z,41.03
2022-11-23T09:41:42.459Z,45.20
2022-11-23T09:44:25.737Z,41.30
2022-11-23T09:47:35.220Z,40.63
2022-11-23T09:50:08.583Z,41.72
2022-11-23T09:52:39.971Z,36.88
2022-11-23T09:55:33.297Z,31.83
2022-11-23T09:58:04.666Z,32.85
2022-11-23T10:00:39.084Z,33.00
2022-11-23T10:03:06.550Z,34.22
2022-11-23T10:05:36.708Z,32.83
2022-11-23T10:08:26.834Z,31.30
2022-11-23T10:11:39.246Z,34.30
2022-11-23T10:14:27.036Z,31.23
2022-11-23T10:17:18.648Z,29.95
2022-11-23T10:19:58.676Z,31.10
2022-11-23T10:22:43.743Z,29.23
2022-11-23T10:25:17.252Z,33.05
2022-11-23T10:27:47.955Z,28.17
2022-11-23T10:30:17.219Z,26.75
2022-11-23T10:32:51.889Z,30.05
2022-11-23T10:35:30.956Z,23.67
2022-11-23T10:38:19.459Z,27.35
2022-11-23T10:40:57.948Z,27.77
2022-11-23T10:43:28.335Z,30.23
2022-11-23T10:46:32.124Z,32.75
2022-11-23T10:49:16.135Z,24.70
2022-11-23T10:51:51.489Z,23.70
2022-11-23T10:54:49.777Z,30.23
2022-11-23T10:57:37.090Z,27.87
2022-11-23T11:00:13.820Z,30.30
2022-11-23T11:02:53.188Z,26.50
2022-11-23T11:08:22.733Z,32.03
2022-11-23T11:11:01.995Z,30.10
2022-11-23T11:13:48.982Z,29.83
2022-11-23T11:16:22.631Z,28.33
2022-11-23T11:18:49.883Z,25.10
2022-11-23T11:21:20.760Z,27.17
2022-11-23T11:23:59.453Z,27.35
2022-11-23T11:26:27.959Z,26.75
2022-11-23T11:29:03.887Z,29.20
2022-11-23T11:31:39.191Z,20.40
2022-11-23T11:34:28.031Z,22.92
2022-11-23T11:37:37.333Z,25.65
2022-11-23T11:40:47.616Z,24.88
2022-11-23T11:43:39.860Z,26.50
2022-11-23T11:46:31.462Z,23.88
2022-11-23T11:49:37.594Z,24.65
2022-11-23T11:52:26.639Z,24.55
2022-11-23T11:55:21.350Z,23.63
2022-11-23T11:57:56.448Z,25.92
2022-11-23T12:00:23.730Z,31.20
2022-11-23T12:03:12.564Z,25.23
2022-11-23T12:05:49.755Z,25.88
2022-11-23T12:08:35.870Z,23.45
2022-11-23T12:11:04.758Z,28.80
2022-11-23T12:13:37.444Z,24.05
2022-11-23T12:16:04.642Z,20.48
2022-11-23T12:18:57.264Z,22.85
2022-11-23T12:21:55.884Z,24.52
2022-11-23T12:24:46.594Z,30.30
2022-11-23T12:27:20.901Z,22.90
2022-11-23T12:30:01.674Z,21.55
2022-11-23T12:32:55.489Z,22.75
2022-11-23T12:35:43.883Z,22.58
2022-11-23T12:38:29.605Z,23.77
2022-11-23T12:41:23.379Z,20.13
2022-11-23T12:44:11.554Z,21.83
2022-11-23T12:46:57.715Z,19.17
2022-11-23T12:49:28.355Z,22.95
2022-11-23T12:52:15.710Z,27.65
2022-11-23T12:55:04.263Z,19.33
2022-11-23T12:57:38.905Z,19.38
2022-11-23T13:00:12.669Z,18.65
2022-11-23T13:03:01.029Z,22.05
2022-11-23T13:06:02.010Z,17.03
2022-11-23T13:08:47.348Z,15.13
2022-11-23T13:11:41.340Z,17.08
2022-11-23T13:14:22.588Z,23.50
2022-11-23T13:16:59.118Z,24.48
2022-11-23T13:20:04.303Z,28.13
2022-11-23T13:22:32.348Z,23.95
2022-11-23T13:25:14.981Z,24.25
2022-11-23T13:27:51.056Z,22.48
2022-11-23T13:30:27.371Z,22.95
2022-11-23T13:33:27.159Z,20.45
2022-11-23T13:36:02.157Z,29.75
2022-11-23T13:38:41.047Z,23.42
2022-11-23T13:41:34.465Z,20.80
2022-11-23T13:44:32.531Z,25.73
2022-11-23T13:47:04.938Z,25.98
2022-11-23T13:49:35.443Z,24.63
2022-11-23T13:52:21.286Z,21.10
2022-11-23T13:55:36.296Z,18.63
2022-11-23T13:58:22.850Z,20.17
2022-11-23T14:00:58.252Z,21.90
2022-11-23T14:03:49.901Z,21.77
2022-11-23T14:06:25.969Z,18.38
2022-11-23T14:09:09.909Z,14.63
2022-11-23T14:12:11.931Z,19.02
2022-11-23T14:14:54.133Z,17.25
2022-11-23T14:17:56.051Z,19.17
2022-11-23T14:20:46.471Z,16.55
2022-11-23T14:23:32.483Z,20.30
2022-11-23T14:26:21.410Z,17.88
2022-11-23T14:29:00.031Z,19.98
2022-11-23T14:31:33.094Z,18.70
2022-11-23T14:34:41.371Z,17.63
2022-11-23T14:37:20.518Z,15.02
2022-11-23T14:40:13.124Z,17.10
2022-11-23T14:42:54.253Z,18.83
2022-11-23T14:45:30.217Z,17.58
2022-11-23T14:47:57.514Z,24.50
2022-11-23T14:50:34.281Z,19.35
2022-11-23T14:53:01.661Z,15.55
2022-11-23T14:55:30.115Z,19.17
2022-11-23T14:58:05.354Z,23.60
2022-11-23T15:00:43.775Z,22.90
2022-11-23T15:03:49.454Z,18.50
2022-11-23T15:06:13.091Z,16.58
2022-11-23T15:09:03.552Z,18.92
2022-11-23T15:11:32.803Z,14.02
2022-11-23T15:14:02.849Z,18.50
2022-11-23T15:16:32.433Z,18.08
2022-11-23T15:18:59.679Z,14.93
2022-11-23T15:21:28.324Z,17.17
2022-11-23T15:23:57.501Z,14.63
2022-11-23T15:29:33.514Z,19.92
2022-11-23T15:32:32.816Z,18.67
2022-11-23T15:34:49.521Z,18.55
2022-11-23T15:37:17.635Z,19.63
2022-11-23T15:39:45.035Z,27.50
2022-11-23T15:42:17.784Z,34.38
2022-11-23T15:44:50.586Z,25.80
2022-11-23T15:47:27.928Z,23.70
2022-11-23T15:50:03.212Z,26.92
2022-11-23T15:52:35.495Z,25.60
2022-11-23T15:55:09.364Z,23.20
2022-11-23T15:57:37.968Z,24.70
2022-11-23T16:00:06.330Z,24.83
2022-11-23T16:02:33.666Z,26.38
2022-11-23T16:05:13.080Z,25.67
2022-11-23T16:10:23.399Z,27.73
2022-11-23T16:12:55.704Z,34.30
2022-11-23T16:15:33.889Z,30.38
2022-11-23T16:18:01.610Z,31.23
2022-11-23T16:20:29.581Z,27.50
2022-11-23T16:22:57.593Z,31.73
2022-11-23T16:25:31.773Z,33.85
2022-11-23T16:28:04.754Z,35.05
2022-11-23T16:30:43.323Z,33.45
2022-11-23T16:33:18.351Z,34.80
2022-11-23T16:35:45.635Z,30.13
2022-11-23T16:38:13.456Z,35.28
2022-11-23T16:40:41.963Z,34.33
2022-11-23T16:43:13.476Z,35.17
2022-11-23T16:45:42.143Z,33.08
2022-11-23T16:48:30.697Z,32.42
2022-11-23T16:50:58.274Z,32.13
2022-11-23T16:53:26.880Z,33.88
2022-11-23T16:55:54.724Z,35.00
2022-11-23T16:58:22.240Z,34.80
2022-11-23T17:00:49.993Z,32.20
2022-11-23T17:03:18.871Z,33.60
2022-11-23T17:05:46.713Z,35.72
2022-11-23T17:08:19.735Z,37.63
2022-11-23T17:10:50.935Z,31.70
2022-11-23T17:13:27.154Z,39.05
2022-11-23T17:15:54.942Z,36.60
2022-11-23T17:18:22.518Z,36.53
2022-11-23T17:20:49.842Z,43.03
2022-11-23T17:23:17.087Z,43.15
2022-11-23T17:25:44.388Z,41.78
2022-11-23T17:28:15.363Z,40.08
2022-11-23T17:30:43.320Z,45.55
2022-11-23T17:33:13.684Z,45.67
2022-11-23T17:35:41.285Z,42.10
2022-11-23T17:38:15.726Z,40.97
2022-11-23T17:40:43.402Z,42.60
2022-11-23T17:43:19.549Z,41.88
2022-11-23T17:45:46.901Z,39.70
2022-11-23T17:48:15.633Z,38.47
2022-11-23T17:50:42.968Z,47.30
2022-11-23T17:53:10.804Z,44.50
2022-11-23T17:55:38.235Z,52.25
2022-11-23T17:58:05.989Z,49.72
2022-11-23T18:00:33.863Z,47.63
2022-11-23T18:03:01.139Z,46.42
2022-11-23T18:05:29.829Z,46.65
2022-11-23T18:07:57.198Z,48.55
2022-11-23T18:10:24.611Z,45.40
2022-11-23T18:12:51.885Z,44.33
2022-11-23T18:15:19.241Z,51.42
2022-11-23T18:17:46.614Z,46.42
2022-11-23T18:20:13.932Z,45.60
2022-11-23T18:22:41.177Z,46.80
2022-11-23T18:25:08.852Z,44.13
2022-11-23T18:27:36.218Z,46.08
2022-11-23T18:30:03.615Z,47.08
2022-11-23T18:32:30.893Z,47.83
2022-11-23T18:34:58.181Z,66.70
2022-11-23T18:37:25.436Z,51.47
2022-11-23T18:39:52.697Z,58.78
2022-11-23T18:42:20.045Z,48.03
2022-11-23T18:44:47.315Z,47.72
2022-11-23T18:47:14.561Z,50.50
2022-11-23T18:49:44.427Z,45.88
2022-11-23T18:52:13.994Z,43.08
2022-11-23T18:54:41.232Z,48.30
2022-11-23T18:57:08.544Z,52.30
2022-11-23T18:59:56.738Z,45.45
2022-11-23T19:02:23.057Z,51.10
2022-11-23T19:04:50.311Z,46.97
2022-11-23T19:07:22.068Z,46.28
2022-11-23T19:09:52.695Z,53.17
2022-11-23T19:12:19.914Z,49.13
2022-11-23T19:14:49.724Z,60.47
2022-11-23T19:17:17.787Z,60.67
2022-11-23T19:19:45.112Z,77.70
2022-11-23T19:22:12.448Z,91.22
2022-11-23T19:24:40.247Z,81.28
2022-11-23T19:27:07.565Z,65.97
2022-11-23T19:29:35.043Z,64.13
2022-11-23T19:32:02.550Z,57.72
2022-11-23T19:34:29.799Z,61.95
2022-11-23T19:36:58.428Z,53.03
2022-11-23T19:39:25.791Z,60.17
2022-11-23T19:41:53.148Z,61.90
2022-11-23T19:44:20.693Z,53.55
2022-11-23T19:46:47.990Z,56.60
2022-11-23T19:49:15.515Z,57.92
2022-11-23T19:51:42.815Z,56.80
2022-11-23T19:54:10.323Z,56.85
2022-11-23T19:56:38.657Z,59.72
2022-11-23T19:59:06.411Z,61.25
2022-11-23T20:01:34.003Z,60.20
2022-11-23T20:04:08.581Z,59.92
2022-11-23T20:06:38.899Z,59.53
2022-11-23T20:09:17.048Z,58.50
2022-11-23T20:11:50.326Z,65.32
2022-11-23T20:14:18.565Z,57.17
2022-11-23T20:16:45.892Z,62.10
2022-11-23T20:19:13.255Z,58.30
2022-11-23T20:21:40.476Z,58.20
2022-11-23T20:24:11.667Z,56.67
2022-11-23T20:26:40.126Z,60.38
2022-11-23T20:29:08.515Z,64.50
2022-11-23T20:31:36.999Z,58.45
2022-11-23T20:34:07.341Z,55.80
2022-11-23T20:36:37.464Z,63.75
2022-11-23T20:39:08.535Z,57.45
2022-11-23T20:41:37.316Z,62.58
2022-11-23T20:44:07.306Z,62.35
2022-11-23T20:47:00.753Z,69.13
2022-11-23T20:49:24.628Z,63.50
2022-11-23T20:51:51.879Z,69.65
2022-11-23T20:54:19.179Z,62.53
2022-11-23T20:56:46.377Z,65.35
2022-11-23T20:59:13.741Z,73.18
2022-11-23T21:01:41.134Z,65.68
2022-11-23T21:04:09.374Z,59.55
2022-11-23T21:06:39.520Z,60.58
2022-11-23T21:09:09.081Z,60.40
2022-11-23T21:11:55.325Z,72.28
2022-11-23T21:14:28.128Z,64.13
2022-11-23T21:16:59.595Z,68.30
2022-11-23T21:19:28.726Z,66.22
2022-11-23T21:21:57.172Z,68.43
2022-11-23T21:24:25.080Z,67.63
2022-11-23T21:26:52.568Z,64.25
2022-11-23T21:29:22.355Z,73.15
2022-11-23T21:31:50.142Z,79.95
2022-11-23T21:34:21.091Z,83.88
2022-11-23T21:36:49.221Z,76.45
2022-11-23T21:39:16.752Z,74.10
2022-11-23T21:41:44.336Z,78.07
2022-11-23T21:44:12.103Z,69.22
2022-11-23T21:46:41.260Z,80.05
2022-11-23T21:49:09.343Z,82.10
2022-11-23T21:51:37.139Z,87.50
2022-11-23T21:54:14.058Z,86.28
2022-11-23T21:56:42.910Z,89.78
2022-11-23T21:59:10.294Z,105.07
2022-11-23T22:01:38.202Z,91.95
2022-11-23T22:04:11.282Z,92.00
2022-11-23T22:06:39.147Z,91.75
2022-11-23T22:09:10.435Z,99.18
2022-11-23T22:11:41.013Z,101.05
2022-11-23T22:14:14.671Z,91.75
2022-11-23T22:16:44.607Z,94.78
2022-11-23T22:19:15.485Z,93.05
2022-11-23T22:21:47.401Z,116.50
2022-11-23T22:24:16.844Z,99.80
2022-11-23T22:26:45.583Z,90.18
2022-11-23T22:29:13.011Z,74.90
2022-11-23T22:31:40.835Z,80.35
2022-11-23T22:34:11.428Z,75.40
2022-11-23T22:36:39.110Z,85.10
2022-11-23T22:39:07.147Z,73.78
2022-11-23T22:41:38.647Z,79.70
2022-11-23T22:44:10.043Z,79.43
2022-11-23T22:46:38.889Z,78.18
2022-11-23T22:49:06.311Z,81.18
2022-11-23T22:51:33.693Z,86.80
2022-11-23T22:54:01.561Z,83.70
2022-11-23T22:56:30.638Z,87.65
2022-11-23T22:58:58.064Z,74.75
2022-11-23T23:01:27.234Z,83.38
2022-11-23T23:03:56.136Z,114.18
2022-11-23T23:06:26.023Z,101.15
2022-11-23T23:08:55.976Z,82.25
2022-11-23T23:11:24.110Z,91.07
2022-11-23T23:13:51.498Z,86.78
2022-11-23T23:16:19.225Z,97.97
2022-11-23T23:18:46.772Z,84.22
2022-11-23T23:21:16.215Z,90.10
2022-11-23T23:26:12.646Z,85.57
2022-11-23T23:28:40.557Z,95.40
2022-11-23T23:31:09.201Z,82.68
2022-11-23T23:33:36.538Z,80.28
2022-11-23T23:36:10.830Z,77.07
2022-11-23T23:38:38.538Z,77.88
2022-11-23T23:41:07.504Z,82.95
2022-11-23T23:43:35.107Z,77.72
2022-11-23T23:46:05.074Z,102.55
2022-11-23T23:48:35.162Z,89.40
2022-11-23T23:51:25.807Z,88.30
2022-11-23T23:53:53.157Z,90.53
2022-11-23T23:56:25.624Z,80.43
2022-11-23T23:58:54.745Z,88.10
